createdAt,value
2019-03-29T00:00:49.373Z,7.20
2019-03-29T00:05:56.717Z,7.10
2019-03-29T00:11:03.652Z,7.10
2019-03-29T00:16:11.807Z,7.10
2019-03-29T00:21:19.689Z,7.10
2019-03-29T00:26:54.712Z,7.10
2019-03-29T00:32:44.162Z,7.20
2019-03-29T00:37:53.851Z,7.10
2019-03-29T00:43:00.114Z,7.10
2019-03-29T00:48:06.742Z,7.10
2019-03-29T00:53:13.280Z,7.00
2019-03-29T00:58:21.307Z,7.10
2019-03-29T01:03:29.162Z,7.00
2019-03-29T01:08:36.173Z,6.90
2019-03-29T01:13:44.032Z,6.80
2019-03-29T01:18:52.209Z,6.70
2019-03-29T01:23:59.883Z,6.70
2019-03-29T01:29:07.772Z,6.70
2019-03-29T01:34:17.005Z,6.60
2019-03-29T01:39:25.155Z,6.60
2019-03-29T01:44:33.174Z,6.60
2019-03-29T01:49:41.990Z,6.60
2019-03-29T01:54:48.811Z,6.50
2019-03-29T01:59:57.188Z,6.40
2019-03-29T02:05:05.473Z,6.40
2019-03-29T02:10:12.512Z,6.40
2019-03-29T02:15:19.119Z,6.30
2019-03-29T02:20:25.836Z,6.20
2019-03-29T02:25:33.156Z,6.20
2019-03-29T02:30:40.965Z,6.20
2019-03-29T02:35:47.309Z,6.30
2019-03-29T02:40:54.336Z,6.20
2019-03-29T02:46:03.876Z,6.20
2019-03-29T02:51:11.350Z,6.20
2019-03-29T02:56:18.881Z,6.10
2019-03-29T03:01:26.249Z,6.10
2019-03-29T03:06:33.427Z,6.10
2019-03-29T03:11:40.947Z,6.00
2019-03-29T03:16:48.802Z,6.00
2019-03-29T03:21:57.049Z,6.00
2019-03-29T03:27:04.622Z,6.00
2019-03-29T03:32:12.210Z,6.10
2019-03-29T03:37:19.707Z,6.10
2019-03-29T03:42:28.387Z,6.10
2019-03-29T03:47:34.946Z,6.10
2019-03-29T03:52:42.003Z,6.00
2019-03-29T03:57:50.027Z,6.00
2019-03-29T04:02:57.553Z,5.90
2019-03-29T04:08:05.679Z,5.80
2019-03-29T04:13:14.680Z,5.80
2019-03-29T04:18:22.398Z,5.70
2019-03-29T04:23:33.423Z,5.70
2019-03-29T04:28:42.613Z,5.70
2019-03-29T04:34:42.868Z,5.70
2019-03-29T04:40:06.257Z,5.70
2019-03-29T04:45:00.128Z,5.60
2019-03-29T04:50:12.623Z,5.60
2019-03-29T04:55:24.787Z,5.60
2019-03-29T05:01:05.068Z,5.50
2019-03-29T05:06:37.439Z,5.40
2019-03-29T05:12:41.894Z,5.20
2019-03-29T05:17:51.442Z,5.30
2019-03-29T05:22:59.168Z,5.20
2019-03-29T05:28:30.119Z,5.20
2019-03-29T05:33:39.276Z,5.30
2019-03-29T05:45:37.464Z,5.50
2019-03-29T05:50:45.515Z,5.60
2019-03-29T05:56:20.039Z,5.70
2019-03-29T06:02:13.658Z,5.80
2019-03-29T06:07:21.799Z,6.00
2019-03-29T06:12:29.589Z,6.20
2019-03-29T06:17:48.401Z,6.30
2019-03-29T06:22:54.790Z,6.40
2019-03-29T06:28:26.302Z,6.50
2019-03-29T06:33:34.002Z,6.70
2019-03-29T06:38:42.962Z,6.90
2019-03-29T06:43:49.667Z,7.00
2019-03-29T06:48:55.998Z,7.10
2019-03-29T06:54:03.189Z,7.20
2019-03-29T06:59:10.150Z,7.50
2019-03-29T07:04:35.596Z,7.60
2019-03-29T07:09:43.664Z,7.70
2019-03-29T07:14:51.138Z,8.00
2019-03-29T07:19:59.412Z,8.00
2019-03-29T07:25:06.696Z,8.20
2019-03-29T07:30:13.604Z,8.30
2019-03-29T07:35:20.255Z,8.50
2019-03-29T07:40:26.991Z,8.50
2019-03-29T07:45:33.334Z,8.30
2019-03-29T07:50:40.630Z,8.20
2019-03-29T07:55:47.989Z,8.30
2019-03-29T08:01:01.171Z,8.20
2019-03-29T08:06:07.767Z,8.30
2019-03-29T08:11:26.232Z,8.20
2019-03-29T08:16:37.063Z,8.30
2019-03-29T08:21:44.065Z,8.40
2019-03-29T08:26:52.831Z,8.40
2019-03-29T08:32:02.687Z,8.30
2019-03-29T08:37:10.260Z,8.40
2019-03-29T08:42:18.818Z,8.60
2019-03-29T08:47:25.891Z,8.30
2019-03-29T08:52:34.026Z,8.40
2019-03-29T08:58:01.437Z,8.40
2019-03-29T09:03:10.517Z,8.50
2019-03-29T09:08:19.535Z,8.80
2019-03-29T09:13:26.280Z,8.80
2019-03-29T09:18:33.806Z,8.80
2019-03-29T09:23:41.906Z,9.00
2019-03-29T09:28:48.635Z,8.90
2019-03-29T09:34:04.053Z,9.10
2019-03-29T09:39:13.049Z,9.20
2019-03-29T09:44:19.664Z,9.30
2019-03-29T09:49:28.520Z,9.70
2019-03-29T09:54:36.167Z,10.00
2019-03-29T09:59:45.054Z,9.80
2019-03-29T10:04:53.334Z,10.10
2019-03-29T10:10:00.753Z,10.20
2019-03-29T10:15:07.928Z,10.50
2019-03-29T10:20:15.140Z,10.70
2019-03-29T10:25:21.798Z,10.90
2019-03-29T10:30:46.533Z,10.60
2019-03-29T10:35:57.699Z,10.90
2019-03-29T10:41:08.014Z,11.40
2019-03-29T10:46:15.900Z,11.70
2019-03-29T10:51:30.517Z,11.60
2019-03-29T10:56:37.955Z,11.90
2019-03-29T11:01:49.431Z,12.20
2019-03-29T11:06:59.352Z,12.70
2019-03-29T11:12:48.278Z,12.50
2019-03-29T11:18:06.212Z,13.70
2019-03-29T11:23:14.013Z,15.70
2019-03-29T11:28:21.378Z,16.60
2019-03-29T11:33:37.806Z,17.90
2019-03-29T11:38:46.035Z,19.20
2019-03-29T11:44:06.602Z,20.40
2019-03-29T11:49:23.461Z,19.40
2019-03-29T11:54:33.568Z,18.80
2019-03-29T11:59:46.266Z,19.80
2019-03-29T12:04:54.792Z,19.10
2019-03-29T12:10:09.465Z,20.10
2019-03-29T12:15:15.932Z,20.50
2019-03-29T12:20:22.836Z,20.00
2019-03-29T12:25:30.712Z,20.40
2019-03-29T12:30:38.148Z,19.80
2019-03-29T12:35:45.851Z,20.00
2019-03-29T12:40:56.264Z,20.20
2019-03-29T12:46:04.591Z,20.40
2019-03-29T12:51:12.464Z,21.30
2019-03-29T12:56:23.584Z,20.30
2019-03-29T13:01:39.790Z,19.40
2019-03-29T13:06:44.078Z,18.90
2019-03-29T13:11:55.501Z,17.70
2019-03-29T13:17:03.576Z,20.00
2019-03-29T13:22:12.621Z,18.10
2019-03-29T13:27:20.745Z,16.90
2019-03-29T13:32:29.252Z,16.80
2019-03-29T13:39:05.077Z,17.70
2019-03-29T13:45:09.023Z,16.90
2019-03-29T13:50:17.311Z,17.80
2019-03-29T13:55:25.698Z,18.70
2019-03-29T14:00:32.561Z,17.80
2019-03-29T14:05:41.019Z,17.70
2019-03-29T14:10:49.680Z,18.40
2019-03-29T14:15:56.501Z,18.60
2019-03-29T14:21:03.841Z,17.90
2019-03-29T14:26:18.757Z,18.30
2019-03-29T14:31:25.165Z,18.70
2019-03-29T14:36:31.835Z,18.60
2019-03-29T14:41:39.025Z,18.60
2019-03-29T14:46:45.720Z,19.70
2019-03-29T14:51:53.630Z,20.40
2019-03-29T14:57:01.997Z,20.90
2019-03-29T15:02:10.288Z,20.30
2019-03-29T15:07:18.850Z,21.10
2019-03-29T15:12:32.698Z,21.20
2019-03-29T15:17:39.967Z,18.00
2019-03-29T15:23:08.549Z,16.90
2019-03-29T15:28:17.609Z,16.90
2019-03-29T15:33:26.386Z,17.60
2019-03-29T15:38:33.259Z,19.20
2019-03-29T15:43:40.718Z,20.60
2019-03-29T15:49:05.425Z,21.80
2019-03-29T15:55:02.318Z,23.70
2019-03-29T16:07:07.904Z,19.80
2019-03-29T16:12:15.319Z,16.80
2019-03-29T16:17:25.425Z,16.20
2019-03-29T16:22:33.708Z,16.50
2019-03-29T16:27:40.830Z,17.00
2019-03-29T16:32:47.947Z,18.30
2019-03-29T16:37:57.370Z,19.60
2019-03-29T16:43:04.044Z,17.70
2019-03-29T16:48:10.540Z,16.10
2019-03-29T16:53:18.539Z,15.50
2019-03-29T16:58:26.363Z,15.00
2019-03-29T17:03:35.419Z,14.70
2019-03-29T17:08:43.783Z,14.40
2019-03-29T17:13:51.805Z,14.20
2019-03-29T17:19:00.372Z,13.90
2019-03-29T17:24:07.053Z,13.60
2019-03-29T17:29:13.990Z,13.50
2019-03-29T17:34:20.776Z,13.30
2019-03-29T17:39:27.498Z,12.90
2019-03-29T17:44:34.228Z,12.60
2019-03-29T17:49:40.758Z,12.10
2019-03-29T17:54:47.928Z,11.70
2019-03-29T17:59:54.314Z,11.40
2019-03-29T18:05:04.778Z,11.10
2019-03-29T18:10:11.522Z,10.80
2019-03-29T18:15:18.237Z,10.60
2019-03-29T18:20:25.167Z,10.20
2019-03-29T18:25:32.389Z,10.00
2019-03-29T18:30:43.934Z,10.10
2019-03-29T18:35:53.802Z,10.00
2019-03-29T18:41:01.621Z,9.90
2019-03-29T18:46:09.336Z,9.90
2019-03-29T18:51:17.376Z,9.60
2019-03-29T18:56:25.070Z,9.40
2019-03-29T19:01:34.275Z,9.30
2019-03-29T19:06:41.797Z,9.20
2019-03-29T19:11:48.665Z,9.30
2019-03-29T19:16:59.166Z,9.60
2019-03-29T19:22:04.847Z,9.40
2019-03-29T19:27:11.726Z,9.10
2019-03-29T19:32:19.072Z,9.00
2019-03-29T19:37:25.605Z,8.90
2019-03-29T19:42:33.703Z,8.60
2019-03-29T19:47:41.448Z,8.50
2019-03-29T19:53:03.672Z,8.70
2019-03-29T19:58:21.211Z,9.00
2019-03-29T20:03:29.791Z,8.90
2019-03-29T20:08:37.474Z,8.80
2019-03-29T20:13:45.405Z,8.70
2019-03-29T20:18:53.857Z,8.40
2019-03-29T20:24:01.641Z,8.10
2019-03-29T20:29:08.329Z,7.90
2019-03-29T20:34:17.045Z,7.80
2019-03-29T20:39:25.005Z,7.70
2019-03-29T20:44:33.200Z,7.60
2019-03-29T20:49:40.004Z,7.40
2019-03-29T20:54:49.644Z,7.30
2019-03-29T21:00:00.438Z,7.40
2019-03-29T21:05:10.915Z,7.50
2019-03-29T21:10:18.109Z,7.50
2019-03-29T21:15:27.379Z,7.30
2019-03-29T21:20:35.841Z,7.20
2019-03-29T21:25:43.819Z,7.00
2019-03-29T21:30:52.271Z,6.90
2019-03-29T21:35:59.614Z,6.70
2019-03-29T21:41:06.398Z,6.80
2019-03-29T21:46:13.143Z,7.10
2019-03-29T21:51:20.397Z,7.20
2019-03-29T21:56:27.707Z,7.10
2019-03-29T22:01:36.234Z,7.00
2019-03-29T22:06:52.964Z,6.70
2019-03-29T22:12:15.635Z,6.40
2019-03-29T22:17:24.232Z,6.30
2019-03-29T22:22:33.646Z,6.30
2019-03-29T22:27:41.789Z,6.40
2019-03-29T22:32:49.828Z,6.30
2019-03-29T22:37:58.651Z,6.30
2019-03-29T22:43:17.616Z,6.20
2019-03-29T22:48:25.511Z,5.90
2019-03-29T22:53:33.152Z,5.80
2019-03-29T22:58:39.631Z,5.70
2019-03-29T23:03:47.819Z,5.70
2019-03-29T23:08:54.799Z,5.60
2019-03-29T23:14:03.023Z,5.60
2019-03-29T23:19:11.538Z,5.60
2019-03-29T23:24:19.282Z,5.50
2019-03-29T23:29:25.628Z,5.50
2019-03-29T23:34:34.269Z,5.40
2019-03-29T23:39:42.588Z,5.40
2019-03-29T23:44:49.745Z,5.30
2019-03-29T23:50:03.029Z,5.20
2019-03-29T23:55:10.859Z,5.20
